sensor_id;sensor_type;location;lat;lon;timestamp;P1;durP1;ratioP1;P2;durP2;ratioP2
15094;SDS011;7648;52.264;9.632;2024-03-07T00:00:25;11.83;;;9.60;;
15094;SDS011;7648;52.264;9.632;2024-03-07T00:04:28;15.60;;;11.27;;
15094;SDS011;7648;52.264;9.632;2024-03-07T00:08:30;18.00;;;11.47;;
15094;SDS011;7648;52.264;9.632;2024-03-07T00:12:34;19.13;;;11.57;;
15094;SDS011;7648;52.264;9.632;2024-03-07T00:16:36;20.47;;;13.17;;
15094;SDS011;7648;52.264;9.632;2024-03-07T00:20:38;18.03;;;11.83;;
15094;SDS011;7648;52.264;9.632;2024-03-07T00:24:40;20.80;;;12.97;;
15094;SDS011;7648;52.264;9.632;2024-03-07T00:28:44;19.07;;;12.73;;
15094;SDS011;7648;52.264;9.632;2024-03-07T00:32:46;18.63;;;12.37;;
15094;SDS011;7648;52.264;9.632;2024-03-07T00:36:48;15.27;;;10.70;;
15094;SDS011;7648;52.264;9.632;2024-03-07T00:40:51;14.83;;;10.83;;
15094;SDS011;7648;52.264;9.632;2024-03-07T00:44:55;18.70;;;12.30;;
15094;SDS011;7648;52.264;9.632;2024-03-07T00:48:57;14.43;;;11.53;;
15094;SDS011;7648;52.264;9.632;2024-03-07T00:53:00;17.63;;;11.93;;
15094;SDS011;7648;52.264;9.632;2024-03-07T00:57:02;17.87;;;11.77;;
15094;SDS011;7648;52.264;9.632;2024-03-07T01:01:06;17.53;;;12.37;;
15094;SDS011;7648;52.264;9.632;2024-03-07T01:05:08;15.43;;;11.37;;
15094;SDS011;7648;52.264;9.632;2024-03-07T01:09:13;17.23;;;11.43;;
15094;SDS011;7648;52.264;9.632;2024-03-07T01:13:17;16.20;;;11.40;;
15094;SDS011;7648;52.264;9.632;2024-03-07T01:17:23;16.83;;;11.17;;
15094;SDS011;7648;52.264;9.632;2024-03-07T01:21:25;18.03;;;11.57;;
15094;SDS011;7648;52.264;9.632;2024-03-07T01:25:27;16.30;;;10.83;;
15094;SDS011;7648;52.264;9.632;2024-03-07T01:29:33;17.17;;;11.83;;
15094;SDS011;7648;52.264;9.632;2024-03-07T01:33:37;16.57;;;11.73;;
15094;SDS011;7648;52.264;9.632;2024-03-07T01:37:39;15.23;;;11.00;;
15094;SDS011;7648;52.264;9.632;2024-03-07T01:41:42;16.27;;;10.60;;
15094;SDS011;7648;52.264;9.632;2024-03-07T01:45:44;16.17;;;10.97;;
15094;SDS011;7648;52.264;9.632;2024-03-07T01:49:49;19.20;;;11.47;;
15094;SDS011;7648;52.264;9.632;2024-03-07T01:53:51;14.67;;;11.50;;
15094;SDS011;7648;52.264;9.632;2024-03-07T01:57:54;16.47;;;11.30;;
15094;SDS011;7648;52.264;9.632;2024-03-07T02:02:00;15.10;;;10.63;;
15094;SDS011;7648;52.264;9.632;2024-03-07T02:06:04;16.60;;;9.50;;
15094;SDS011;7648;52.264;9.632;2024-03-07T02:10:06;13.47;;;9.27;;
15094;SDS011;7648;52.264;9.632;2024-03-07T02:14:09;22.03;;;11.20;;
15094;SDS011;7648;52.264;9.632;2024-03-07T02:18:11;15.37;;;10.70;;
15094;SDS011;7648;52.264;9.632;2024-03-07T02:22:15;17.00;;;10.37;;
15094;SDS011;7648;52.264;9.632;2024-03-07T02:26:17;16.50;;;10.93;;
15094;SDS011;7648;52.264;9.632;2024-03-07T02:30:19;13.67;;;9.53;;
15094;SDS011;7648;52.264;9.632;2024-03-07T02:34:21;14.60;;;9.80;;
15094;SDS011;7648;52.264;9.632;2024-03-07T02:38:25;16.70;;;12.60;;
15094;SDS011;7648;52.264;9.632;2024-03-07T02:42:27;14.53;;;9.60;;
15094;SDS011;7648;52.264;9.632;2024-03-07T02:46:29;13.57;;;10.40;;
15094;SDS011;7648;52.264;9.632;2024-03-07T02:50:32;16.13;;;11.17;;
15094;SDS011;7648;52.264;9.632;2024-03-07T02:54:36;14.00;;;9.67;;
15094;SDS011;7648;52.264;9.632;2024-03-07T02:58:38;13.70;;;9.80;;
15094;SDS011;7648;52.264;9.632;2024-03-07T03:02:40;14.63;;;9.73;;
15094;SDS011;7648;52.264;9.632;2024-03-07T03:06:42;11.93;;;9.27;;
15094;SDS011;7648;52.264;9.632;2024-03-07T03:10:46;10.63;;;9.00;;
15094;SDS011;7648;52.264;9.632;2024-03-07T03:14:48;12.43;;;8.90;;
15094;SDS011;7648;52.264;9.632;2024-03-07T03:18:50;12.90;;;9.70;;
15094;SDS011;7648;52.264;9.632;2024-03-07T03:22:52;15.47;;;9.50;;
15094;SDS011;7648;52.264;9.632;2024-03-07T03:26:56;11.60;;;8.53;;
15094;SDS011;7648;52.264;9.632;2024-03-07T03:30:58;14.33;;;9.10;;
15094;SDS011;7648;52.264;9.632;2024-03-07T03:35:00;15.13;;;8.87;;
15094;SDS011;7648;52.264;9.632;2024-03-07T03:39:02;12.23;;;9.40;;
15094;SDS011;7648;52.264;9.632;2024-03-07T03:43:05;16.67;;;9.77;;
15094;SDS011;7648;52.264;9.632;2024-03-07T03:47:07;16.80;;;9.73;;
15094;SDS011;7648;52.264;9.632;2024-03-07T03:51:09;13.07;;;9.83;;
15094;SDS011;7648;52.264;9.632;2024-03-07T03:55:13;23.93;;;9.07;;
15094;SDS011;7648;52.264;9.632;2024-03-07T03:59:16;18.13;;;10.30;;
15094;SDS011;7648;52.264;9.632;2024-03-07T04:03:18;14.93;;;9.73;;
15094;SDS011;7648;52.264;9.632;2024-03-07T04:07:21;19.93;;;10.37;;
15094;SDS011;7648;52.264;9.632;2024-03-07T04:11:23;14.60;;;9.90;;
15094;SDS011;7648;52.264;9.632;2024-03-07T04:15:26;14.17;;;9.33;;
15094;SDS011;7648;52.264;9.632;2024-03-07T04:19:31;14.67;;;9.83;;
15094;SDS011;7648;52.264;9.632;2024-03-07T04:23:33;14.47;;;8.67;;
15094;SDS011;7648;52.264;9.632;2024-03-07T04:27:35;16.80;;;9.97;;
15094;SDS011;7648;52.264;9.632;2024-03-07T04:31:41;20.13;;;11.70;;
15094;SDS011;7648;52.264;9.632;2024-03-07T04:35:44;19.10;;;11.53;;
15094;SDS011;7648;52.264;9.632;2024-03-07T04:39:46;16.17;;;11.07;;
15094;SDS011;7648;52.264;9.632;2024-03-07T04:43:48;22.10;;;11.60;;
15094;SDS011;7648;52.264;9.632;2024-03-07T04:47:51;19.30;;;12.30;;
15094;SDS011;7648;52.264;9.632;2024-03-07T04:51:53;18.97;;;11.03;;
15094;SDS011;7648;52.264;9.632;2024-03-07T04:55:56;17.30;;;11.80;;
15094;SDS011;7648;52.264;9.632;2024-03-07T04:59:58;21.70;;;11.40;;
15094;SDS011;7648;52.264;9.632;2024-03-07T05:04:01;14.23;;;10.67;;
15094;SDS011;7648;52.264;9.632;2024-03-07T05:08:03;15.80;;;10.93;;
15094;SDS011;7648;52.264;9.632;2024-03-07T05:12:06;16.10;;;11.03;;
15094;SDS011;7648;52.264;9.632;2024-03-07T05:16:08;21.50;;;12.87;;
15094;SDS011;7648;52.264;9.632;2024-03-07T05:20:11;19.53;;;11.37;;
15094;SDS011;7648;52.264;9.632;2024-03-07T05:24:13;17.30;;;12.20;;
15094;SDS011;7648;52.264;9.632;2024-03-07T05:28:15;18.80;;;12.43;;
15094;SDS011;7648;52.264;9.632;2024-03-07T05:32:21;19.97;;;12.03;;
15094;SDS011;7648;52.264;9.632;2024-03-07T05:36:25;20.17;;;11.47;;
15094;SDS011;7648;52.264;9.632;2024-03-07T05:40:27;16.20;;;11.40;;
15094;SDS011;7648;52.264;9.632;2024-03-07T05:44:29;18.50;;;12.30;;
15094;SDS011;7648;52.264;9.632;2024-03-07T05:48:30;20.83;;;11.47;;
15094;SDS011;7648;52.264;9.632;2024-03-07T05:52:34;20.20;;;12.13;;
15094;SDS011;7648;52.264;9.632;2024-03-07T05:56:36;17.93;;;12.33;;
15094;SDS011;7648;52.264;9.632;2024-03-07T06:00:38;17.83;;;11.40;;
15094;SDS011;7648;52.264;9.632;2024-03-07T06:04:40;16.87;;;11.27;;
15094;SDS011;7648;52.264;9.632;2024-03-07T06:08:44;18.13;;;10.53;;
15094;SDS011;7648;52.264;9.632;2024-03-07T06:12:46;16.90;;;10.90;;
15094;SDS011;7648;52.264;9.632;2024-03-07T06:16:48;20.57;;;11.60;;
15094;SDS011;7648;52.264;9.632;2024-03-07T06:20:52;23.50;;;14.40;;
15094;SDS011;7648;52.264;9.632;2024-03-07T06:24:55;21.50;;;13.03;;
15094;SDS011;7648;52.264;9.632;2024-03-07T06:29:04;24.77;;;13.97;;
15094;SDS011;7648;52.264;9.632;2024-03-07T06:33:06;21.77;;;13.90;;
15094;SDS011;7648;52.264;9.632;2024-03-07T06:37:08;21.33;;;13.43;;
15094;SDS011;7648;52.264;9.632;2024-03-07T06:41:14;23.40;;;14.50;;
15094;SDS011;7648;52.264;9.632;2024-03-07T06:45:16;26.30;;;15.10;;
15094;SDS011;7648;52.264;9.632;2024-03-07T06:49:18;22.53;;;15.07;;
15094;SDS011;7648;52.264;9.632;2024-03-07T06:53:21;28.40;;;15.17;;
15094;SDS011;7648;52.264;9.632;2024-03-07T06:57:27;27.93;;;14.80;;
15094;SDS011;7648;52.264;9.632;2024-03-07T07:01:29;20.00;;;13.40;;
15094;SDS011;7648;52.264;9.632;2024-03-07T07:05:31;27.30;;;15.27;;
15094;SDS011;7648;52.264;9.632;2024-03-07T07:09:35;27.40;;;14.70;;
15094;SDS011;7648;52.264;9.632;2024-03-07T07:13:39;21.43;;;13.33;;
15094;SDS011;7648;52.264;9.632;2024-03-07T07:17:42;25.67;;;15.23;;
15094;SDS011;7648;52.264;9.632;2024-03-07T07:21:47;26.53;;;16.33;;
15094;SDS011;7648;52.264;9.632;2024-03-07T07:25:49;29.93;;;16.37;;
15094;SDS011;7648;52.264;9.632;2024-03-07T07:29:53;27.37;;;15.33;;
15094;SDS011;7648;52.264;9.632;2024-03-07T07:33:55;24.83;;;14.37;;
15094;SDS011;7648;52.264;9.632;2024-03-07T07:37:57;27.93;;;16.00;;
15094;SDS011;7648;52.264;9.632;2024-03-07T07:41:59;34.93;;;16.53;;
15094;SDS011;7648;52.264;9.632;2024-03-07T07:46:03;38.03;;;18.97;;
15094;SDS011;7648;52.264;9.632;2024-03-07T07:50:06;34.73;;;16.50;;
15094;SDS011;7648;52.264;9.632;2024-03-07T07:54:12;29.90;;;15.97;;
15094;SDS011;7648;52.264;9.632;2024-03-07T07:58:14;36.57;;;17.90;;
15094;SDS011;7648;52.264;9.632;2024-03-07T08:02:18;40.23;;;19.47;;
15094;SDS011;7648;52.264;9.632;2024-03-07T08:06:22;33.67;;;16.57;;
15094;SDS011;7648;52.264;9.632;2024-03-07T08:10:24;35.30;;;17.80;;
15094;SDS011;7648;52.264;9.632;2024-03-07T08:14:28;42.10;;;19.30;;
15094;SDS011;7648;52.264;9.632;2024-03-07T08:18:32;43.13;;;19.30;;
15094;SDS011;7648;52.264;9.632;2024-03-07T08:22:34;41.93;;;18.67;;
15094;SDS011;7648;52.264;9.632;2024-03-07T08:26:35;39.13;;;19.67;;
15094;SDS011;7648;52.264;9.632;2024-03-07T08:30:37;43.27;;;17.90;;
15094;SDS011;7648;52.264;9.632;2024-03-07T08:34:42;42.03;;;19.90;;
15094;SDS011;7648;52.264;9.632;2024-03-07T08:38:44;51.80;;;20.07;;
15094;SDS011;7648;52.264;9.632;2024-03-07T08:42:46;47.80;;;21.33;;
15094;SDS011;7648;52.264;9.632;2024-03-07T08:46:50;45.27;;;20.77;;
15094;SDS011;7648;52.264;9.632;2024-03-07T08:50:53;49.43;;;21.37;;
15094;SDS011;7648;52.264;9.632;2024-03-07T08:54:55;50.67;;;20.83;;
15094;SDS011;7648;52.264;9.632;2024-03-07T08:58:57;49.83;;;22.73;;
15094;SDS011;7648;52.264;9.632;2024-03-07T09:02:59;47.70;;;22.13;;
15094;SDS011;7648;52.264;9.632;2024-03-07T09:07:05;59.90;;;22.93;;
15094;SDS011;7648;52.264;9.632;2024-03-07T09:11:07;57.80;;;22.17;;
15094;SDS011;7648;52.264;9.632;2024-03-07T09:15:09;52.40;;;23.40;;
15094;SDS011;7648;52.264;9.632;2024-03-07T09:19:12;57.70;;;22.80;;
15094;SDS011;7648;52.264;9.632;2024-03-07T09:23:15;48.43;;;21.77;;
15094;SDS011;7648;52.264;9.632;2024-03-07T09:27:17;61.43;;;23.80;;
15094;SDS011;7648;52.264;9.632;2024-03-07T09:31:20;56.93;;;22.67;;
15094;SDS011;7648;52.264;9.632;2024-03-07T09:35:22;55.53;;;22.73;;
15094;SDS011;7648;52.264;9.632;2024-03-07T09:39:25;55.53;;;25.10;;
15094;SDS011;7648;52.264;9.632;2024-03-07T09:43:27;55.33;;;23.93;;
15094;SDS011;7648;52.264;9.632;2024-03-07T09:47:31;57.30;;;22.93;;
15094;SDS011;7648;52.264;9.632;2024-03-07T09:51:34;51.93;;;21.83;;
15094;SDS011;7648;52.264;9.632;2024-03-07T09:55:38;53.07;;;23.37;;
15094;SDS011;7648;52.264;9.632;2024-03-07T09:59:41;49.63;;;22.33;;
15094;SDS011;7648;52.264;9.632;2024-03-07T10:03:47;49.60;;;22.47;;
15094;SDS011;7648;52.264;9.632;2024-03-07T10:07:51;51.57;;;22.80;;
15094;SDS011;7648;52.264;9.632;2024-03-07T10:11:58;53.50;;;23.70;;
15094;SDS011;7648;52.264;9.632;2024-03-07T10:16:05;49.70;;;21.80;;
15094;SDS011;7648;52.264;9.632;2024-03-07T10:20:12;45.37;;;21.63;;
15094;SDS011;7648;52.264;9.632;2024-03-07T10:24:15;47.73;;;21.23;;
15094;SDS011;7648;52.264;9.632;2024-03-07T10:28:23;45.60;;;21.77;;
15094;SDS011;7648;52.264;9.632;2024-03-07T10:32:27;42.77;;;20.53;;
15094;SDS011;7648;52.264;9.632;2024-03-07T10:36:31;43.80;;;20.17;;
15094;SDS011;7648;52.264;9.632;2024-03-07T10:40:34;53.37;;;22.80;;
15094;SDS011;7648;52.264;9.632;2024-03-07T10:44:43;42.57;;;19.37;;
15094;SDS011;7648;52.264;9.632;2024-03-07T10:48:46;38.83;;;20.93;;
15094;SDS011;7648;52.264;9.632;2024-03-07T10:52:58;41.13;;;20.97;;
15094;SDS011;7648;52.264;9.632;2024-03-07T10:57:04;35.53;;;18.80;;
15094;SDS011;7648;52.264;9.632;2024-03-07T11:01:18;38.60;;;20.40;;
15094;SDS011;7648;52.264;9.632;2024-03-07T11:05:24;40.57;;;18.90;;
15094;SDS011;7648;52.264;9.632;2024-03-07T11:09:29;40.03;;;19.17;;
15094;SDS011;7648;52.264;9.632;2024-03-07T11:13:34;41.30;;;19.40;;
15094;SDS011;7648;52.264;9.632;2024-03-07T11:17:39;36.63;;;18.43;;
15094;SDS011;7648;52.264;9.632;2024-03-07T11:21:41;36.67;;;16.43;;
15094;SDS011;7648;52.264;9.632;2024-03-07T11:25:43;37.70;;;17.83;;
15094;SDS011;7648;52.264;9.632;2024-03-07T11:29:49;33.80;;;18.27;;
15094;SDS011;7648;52.264;9.632;2024-03-07T11:34:13;33.33;;;16.30;;
15094;SDS011;7648;52.264;9.632;2024-03-07T11:38:15;33.70;;;17.77;;
15094;SDS011;7648;52.264;9.632;2024-03-07T11:42:24;33.97;;;17.23;;
15094;SDS011;7648;52.264;9.632;2024-03-07T11:46:27;30.70;;;17.80;;
15094;SDS011;7648;52.264;9.632;2024-03-07T11:50:35;33.43;;;18.73;;
15094;SDS011;7648;52.264;9.632;2024-03-07T11:54:37;30.13;;;17.43;;
15094;SDS011;7648;52.264;9.632;2024-03-07T11:58:41;38.70;;;18.50;;
15094;SDS011;7648;52.264;9.632;2024-03-07T12:02:45;37.20;;;17.93;;
15094;SDS011;7648;52.264;9.632;2024-03-07T12:06:53;34.87;;;17.17;;
15094;SDS011;7648;52.264;9.632;2024-03-07T12:10:55;34.70;;;18.87;;
15094;SDS011;7648;52.264;9.632;2024-03-07T12:14:57;26.87;;;17.57;;
15094;SDS011;7648;52.264;9.632;2024-03-07T12:18:59;34.23;;;18.53;;
15094;SDS011;7648;52.264;9.632;2024-03-07T12:23:06;28.87;;;18.27;;
15094;SDS011;7648;52.264;9.632;2024-03-07T12:27:10;28.93;;;16.90;;
15094;SDS011;7648;52.264;9.632;2024-03-07T12:31:13;30.83;;;17.63;;
15094;SDS011;7648;52.264;9.632;2024-03-07T12:35:17;31.43;;;17.83;;
15094;SDS011;7648;52.264;9.632;2024-03-07T12:39:23;26.47;;;15.00;;
15094;SDS011;7648;52.264;9.632;2024-03-07T12:43:26;28.93;;;16.57;;
15094;SDS011;7648;52.264;9.632;2024-03-07T12:47:28;29.07;;;16.50;;
15094;SDS011;7648;52.264;9.632;2024-03-07T12:51:32;32.70;;;16.23;;
15094;SDS011;7648;52.264;9.632;2024-03-07T12:55:38;29.87;;;15.70;;
15094;SDS011;7648;52.264;9.632;2024-03-07T12:59:41;31.13;;;16.30;;
15094;SDS011;7648;52.264;9.632;2024-03-07T13:03:43;23.23;;;16.10;;
15094;SDS011;7648;52.264;9.632;2024-03-07T13:07:45;26.37;;;14.60;;
15094;SDS011;7648;52.264;9.632;2024-03-07T13:11:49;28.77;;;15.10;;
15094;SDS011;7648;52.264;9.632;2024-03-07T13:15:51;28.97;;;16.83;;
15094;SDS011;7648;52.264;9.632;2024-03-07T13:19:54;57.63;;;33.40;;
15094;SDS011;7648;52.264;9.632;2024-03-07T13:24:00;31.80;;;17.73;;
15094;SDS011;7648;52.264;9.632;2024-03-07T13:28:04;26.77;;;15.93;;
15094;SDS011;7648;52.264;9.632;2024-03-07T13:32:08;27.53;;;15.13;;
15094;SDS011;7648;52.264;9.632;2024-03-07T13:36:12;27.43;;;15.37;;
15094;SDS011;7648;52.264;9.632;2024-03-07T13:40:20;25.90;;;15.10;;
15094;SDS011;7648;52.264;9.632;2024-03-07T13:44:27;28.97;;;15.20;;
15094;SDS011;7648;52.264;9.632;2024-03-07T13:48:29;21.60;;;15.30;;
15094;SDS011;7648;52.264;9.632;2024-03-07T13:52:32;23.53;;;15.23;;
15094;SDS011;7648;52.264;9.632;2024-03-07T13:56:46;26.93;;;15.57;;
15094;SDS011;7648;52.264;9.632;2024-03-07T14:00:56;27.80;;;15.60;;
15094;SDS011;7648;52.264;9.632;2024-03-07T14:10:03;29.53;;;15.97;;
15094;SDS011;7648;52.264;9.632;2024-03-07T14:19:50;23.20;;;14.80;;
15094;SDS011;7648;52.264;9.632;2024-03-07T14:29:02;23.37;;;13.97;;
15094;SDS011;7648;52.264;9.632;2024-03-07T14:33:16;25.63;;;14.30;;
15094;SDS011;7648;52.264;9.632;2024-03-07T14:37:23;20.17;;;12.87;;
15094;SDS011;7648;52.264;9.632;2024-03-07T14:41:41;57.77;;;29.47;;
15094;SDS011;7648;52.264;9.632;2024-03-07T14:45:47;90.50;;;44.37;;
15094;SDS011;7648;52.264;9.632;2024-03-07T14:49:50;77.20;;;40.90;;
15094;SDS011;7648;52.264;9.632;2024-03-07T14:53:53;66.67;;;39.03;;
15094;SDS011;7648;52.264;9.632;2024-03-07T14:57:55;35.97;;;24.13;;
15094;SDS011;7648;52.264;9.632;2024-03-07T15:01:58;23.40;;;12.93;;
15094;SDS011;7648;52.264;9.632;2024-03-07T15:06:03;17.37;;;13.47;;
15094;SDS011;7648;52.264;9.632;2024-03-07T15:10:11;18.93;;;13.97;;
15094;SDS011;7648;52.264;9.632;2024-03-07T15:14:18;20.90;;;14.63;;
15094;SDS011;7648;52.264;9.632;2024-03-07T15:18:20;22.13;;;15.07;;
15094;SDS011;7648;52.264;9.632;2024-03-07T15:22:22;19.60;;;13.80;;
15094;SDS011;7648;52.264;9.632;2024-03-07T15:26:26;20.37;;;15.07;;
15094;SDS011;7648;52.264;9.632;2024-03-07T15:30:31;21.23;;;13.63;;
15094;SDS011;7648;52.264;9.632;2024-03-07T15:34:34;23.43;;;15.23;;
15094;SDS011;7648;52.264;9.632;2024-03-07T15:38:37;35.20;;;24.67;;
15094;SDS011;7648;52.264;9.632;2024-03-07T15:42:41;26.73;;;18.43;;
15094;SDS011;7648;52.264;9.632;2024-03-07T15:46:43;21.93;;;15.23;;
15094;SDS011;7648;52.264;9.632;2024-03-07T15:50:46;32.90;;;22.20;;
15094;SDS011;7648;52.264;9.632;2024-03-07T15:54:47;31.37;;;19.60;;
15094;SDS011;7648;52.264;9.632;2024-03-07T15:58:51;30.87;;;22.57;;
15094;SDS011;7648;52.264;9.632;2024-03-07T16:02:54;25.07;;;16.70;;
15094;SDS011;7648;52.264;9.632;2024-03-07T16:06:57;30.77;;;20.03;;
15094;SDS011;7648;52.264;9.632;2024-03-07T16:10:59;26.53;;;17.83;;
15094;SDS011;7648;52.264;9.632;2024-03-07T16:15:04;30.10;;;19.77;;
15094;SDS011;7648;52.264;9.632;2024-03-07T16:19:08;29.03;;;20.13;;
15094;SDS011;7648;52.264;9.632;2024-03-07T16:23:10;27.23;;;17.57;;
15094;SDS011;7648;52.264;9.632;2024-03-07T16:27:15;25.27;;;16.17;;
15094;SDS011;7648;52.264;9.632;2024-03-07T16:31:18;22.77;;;14.27;;
15094;SDS011;7648;52.264;9.632;2024-03-07T16:35:20;26.60;;;16.93;;
15094;SDS011;7648;52.264;9.632;2024-03-07T16:39:22;17.23;;;12.13;;
15094;SDS011;7648;52.264;9.632;2024-03-07T16:43:25;24.13;;;13.93;;
15094;SDS011;7648;52.264;9.632;2024-03-07T16:47:28;24.47;;;14.27;;
15094;SDS011;7648;52.264;9.632;2024-03-07T16:51:30;27.80;;;17.93;;
15094;SDS011;7648;52.264;9.632;2024-03-07T16:55:32;34.80;;;21.60;;
15094;SDS011;7648;52.264;9.632;2024-03-07T16:59:37;86.20;;;47.30;;
15094;SDS011;7648;52.264;9.632;2024-03-07T17:03:41;59.90;;;30.03;;
15094;SDS011;7648;52.264;9.632;2024-03-07T17:07:43;30.93;;;18.20;;
15094;SDS011;7648;52.264;9.632;2024-03-07T17:11:45;98.03;;;48.00;;
15094;SDS011;7648;52.264;9.632;2024-03-07T17:15:47;35.80;;;21.83;;
15094;SDS011;7648;52.264;9.632;2024-03-07T17:19:50;25.93;;;17.17;;
15094;SDS011;7648;52.264;9.632;2024-03-07T17:23:52;23.87;;;14.77;;
15094;SDS011;7648;52.264;9.632;2024-03-07T17:27:54;19.73;;;13.80;;
15094;SDS011;7648;52.264;9.632;2024-03-07T17:31:57;20.77;;;13.10;;
15094;SDS011;7648;52.264;9.632;2024-03-07T17:36:01;15.43;;;11.47;;
15094;SDS011;7648;52.264;9.632;2024-03-07T17:40:07;19.57;;;12.40;;
15094;SDS011;7648;52.264;9.632;2024-03-07T17:44:15;18.87;;;11.97;;
15094;SDS011;7648;52.264;9.632;2024-03-07T17:48:17;22.13;;;12.20;;
15094;SDS011;7648;52.264;9.632;2024-03-07T17:52:21;17.50;;;11.97;;
15094;SDS011;7648;52.264;9.632;2024-03-07T17:56:26;24.03;;;12.70;;
15094;SDS011;7648;52.264;9.632;2024-03-07T18:00:28;14.57;;;10.67;;
15094;SDS011;7648;52.264;9.632;2024-03-07T18:04:31;15.07;;;11.57;;
15094;SDS011;7648;52.264;9.632;2024-03-07T18:08:34;20.37;;;11.93;;
15094;SDS011;7648;52.264;9.632;2024-03-07T18:12:36;17.33;;;11.93;;
15094;SDS011;7648;52.264;9.632;2024-03-07T18:16:38;15.93;;;11.33;;
15094;SDS011;7648;52.264;9.632;2024-03-07T18:20:40;24.70;;;14.87;;
15094;SDS011;7648;52.264;9.632;2024-03-07T18:24:44;18.07;;;11.90;;
15094;SDS011;7648;52.264;9.632;2024-03-07T18:28:46;23.83;;;14.70;;
15094;SDS011;7648;52.264;9.632;2024-03-07T18:32:48;19.37;;;13.20;;
15094;SDS011;7648;52.264;9.632;2024-03-07T18:36:50;20.97;;;14.30;;
15094;SDS011;7648;52.264;9.632;2024-03-07T18:40:53;17.33;;;12.90;;
15094;SDS011;7648;52.264;9.632;2024-03-07T18:44:55;17.43;;;12.60;;
15094;SDS011;7648;52.264;9.632;2024-03-07T18:48:58;19.10;;;13.87;;
15094;SDS011;7648;52.264;9.632;2024-03-07T18:53:08;16.57;;;12.57;;
15094;SDS011;7648;52.264;9.632;2024-03-07T18:57:12;17.77;;;12.97;;
15094;SDS011;7648;52.264;9.632;2024-03-07T19:01:14;19.13;;;13.00;;
15094;SDS011;7648;52.264;9.632;2024-03-07T19:05:15;18.33;;;13.30;;
15094;SDS011;7648;52.264;9.632;2024-03-07T19:09:17;18.23;;;12.60;;
15094;SDS011;7648;52.264;9.632;2024-03-07T19:13:25;18.07;;;12.37;;
15094;SDS011;7648;52.264;9.632;2024-03-07T19:17:32;20.33;;;12.70;;
15094;SDS011;7648;52.264;9.632;2024-03-07T19:21:35;23.40;;;12.70;;
15094;SDS011;7648;52.264;9.632;2024-03-07T19:25:43;21.77;;;13.03;;
15094;SDS011;7648;52.264;9.632;2024-03-07T19:29:46;17.23;;;12.47;;
15094;SDS011;7648;52.264;9.632;2024-03-07T19:33:55;18.93;;;12.20;;
15094;SDS011;7648;52.264;9.632;2024-03-07T19:37:57;19.33;;;13.50;;
15094;SDS011;7648;52.264;9.632;2024-03-07T19:41:59;19.10;;;13.03;;
15094;SDS011;7648;52.264;9.632;2024-03-07T19:46:05;26.13;;;13.60;;
15094;SDS011;7648;52.264;9.632;2024-03-07T19:50:08;20.33;;;12.60;;
15094;SDS011;7648;52.264;9.632;2024-03-07T19:54:11;15.93;;;12.17;;
15094;SDS011;7648;52.264;9.632;2024-03-07T19:58:16;18.47;;;12.87;;
15094;SDS011;7648;52.264;9.632;2024-03-07T20:02:19;24.27;;;16.23;;
15094;SDS011;7648;52.264;9.632;2024-03-07T20:06:21;20.87;;;13.90;;
15094;SDS011;7648;52.264;9.632;2024-03-07T20:10:23;18.47;;;13.17;;
15094;SDS011;7648;52.264;9.632;2024-03-07T20:14:27;20.83;;;12.77;;
15094;SDS011;7648;52.264;9.632;2024-03-07T20:18:30;16.90;;;12.23;;
15094;SDS011;7648;52.264;9.632;2024-03-07T20:22:32;16.10;;;11.67;;
15094;SDS011;7648;52.264;9.632;2024-03-07T20:26:34;17.97;;;12.27;;
15094;SDS011;7648;52.264;9.632;2024-03-07T20:30:36;22.53;;;13.90;;
15094;SDS011;7648;52.264;9.632;2024-03-07T20:34:39;17.33;;;13.43;;
15094;SDS011;7648;52.264;9.632;2024-03-07T20:38:41;17.03;;;13.07;;
15094;SDS011;7648;52.264;9.632;2024-03-07T20:42:44;24.23;;;13.13;;
15094;SDS011;7648;52.264;9.632;2024-03-07T20:46:46;19.20;;;13.20;;
15094;SDS011;7648;52.264;9.632;2024-03-07T20:50:49;20.17;;;12.17;;
15094;SDS011;7648;52.264;9.632;2024-03-07T20:54:52;18.43;;;12.10;;
15094;SDS011;7648;52.264;9.632;2024-03-07T20:58:58;17.17;;;12.50;;
15094;SDS011;7648;52.264;9.632;2024-03-07T21:03:01;18.63;;;13.00;;
15094;SDS011;7648;52.264;9.632;2024-03-07T21:07:08;18.83;;;12.00;;
15094;SDS011;7648;52.264;9.632;2024-03-07T21:11:10;25.40;;;13.00;;
15094;SDS011;7648;52.264;9.632;2024-03-07T21:15:12;21.47;;;12.77;;
15094;SDS011;7648;52.264;9.632;2024-03-07T21:19:15;19.10;;;12.10;;
15094;SDS011;7648;52.264;9.632;2024-03-07T21:23:18;19.90;;;14.20;;
15094;SDS011;7648;52.264;9.632;2024-03-07T21:27:23;30.40;;;16.90;;
15094;SDS011;7648;52.264;9.632;2024-03-07T21:31:25;20.80;;;13.40;;
15094;SDS011;7648;52.264;9.632;2024-03-07T21:35:27;17.67;;;12.33;;
15094;SDS011;7648;52.264;9.632;2024-03-07T21:39:32;15.83;;;11.93;;
15094;SDS011;7648;52.264;9.632;2024-03-07T21:43:34;18.60;;;12.63;;
15094;SDS011;7648;52.264;9.632;2024-03-07T21:47:37;19.60;;;12.23;;
15094;SDS011;7648;52.264;9.632;2024-03-07T21:51:39;18.83;;;12.43;;
15094;SDS011;7648;52.264;9.632;2024-03-07T21:55:48;16.50;;;12.67;;
15094;SDS011;7648;52.264;9.632;2024-03-07T21:59:51;19.13;;;13.13;;
15094;SDS011;7648;52.264;9.632;2024-03-07T22:03:55;19.57;;;13.00;;
15094;SDS011;7648;52.264;9.632;2024-03-07T22:07:57;19.40;;;12.93;;
15094;SDS011;7648;52.264;9.632;2024-03-07T22:12:01;17.53;;;12.33;;
15094;SDS011;7648;52.264;9.632;2024-03-07T22:16:03;21.47;;;13.13;;
15094;SDS011;7648;52.264;9.632;2024-03-07T22:20:06;17.80;;;12.87;;
15094;SDS011;7648;52.264;9.632;2024-03-07T22:24:09;17.60;;;11.97;;
15094;SDS011;7648;52.264;9.632;2024-03-07T22:28:13;19.90;;;13.27;;
15094;SDS011;7648;52.264;9.632;2024-03-07T22:32:15;16.67;;;11.63;;
15094;SDS011;7648;52.264;9.632;2024-03-07T22:36:17;18.90;;;11.60;;
15094;SDS011;7648;52.264;9.632;2024-03-07T22:40:20;18.20;;;12.10;;
15094;SDS011;7648;52.264;9.632;2024-03-07T22:44:24;19.60;;;12.47;;
15094;SDS011;7648;52.264;9.632;2024-03-07T22:48:26;16.97;;;11.80;;
15094;SDS011;7648;52.264;9.632;2024-03-07T22:52:29;18.33;;;12.43;;
15094;SDS011;7648;52.264;9.632;2024-03-07T22:56:31;17.97;;;11.37;;
15094;SDS011;7648;52.264;9.632;2024-03-07T23:00:34;22.33;;;11.43;;
15094;SDS011;7648;52.264;9.632;2024-03-07T23:04:44;19.90;;;12.57;;
15094;SDS011;7648;52.264;9.632;2024-03-07T23:08:46;18.17;;;12.13;;
15094;SDS011;7648;52.264;9.632;2024-03-07T23:12:48;36.03;;;19.13;;
15094;SDS011;7648;52.264;9.632;2024-03-07T23:16:53;27.10;;;15.40;;
15094;SDS011;7648;52.264;9.632;2024-03-07T23:20:56;22.13;;;14.83;;
15094;SDS011;7648;52.264;9.632;2024-03-07T23:24:58;26.33;;;15.47;;
15094;SDS011;7648;52.264;9.632;2024-03-07T23:29:00;29.67;;;17.50;;
15094;SDS011;7648;52.264;9.632;2024-03-07T23:33:03;22.23;;;13.27;;
15094;SDS011;7648;52.264;9.632;2024-03-07T23:37:05;25.70;;;15.73;;
15094;SDS011;7648;52.264;9.632;2024-03-07T23:41:07;23.73;;;16.17;;
15094;SDS011;7648;52.264;9.632;2024-03-07T23:45:11;30.63;;;19.17;;
15094;SDS011;7648;52.264;9.632;2024-03-07T23:49:14;35.67;;;21.03;;
15094;SDS011;7648;52.264;9.632;2024-03-07T23:53:16;60.33;;;31.90;;
15094;SDS011;7648;52.264;9.632;2024-03-07T23:57:19;61.17;;;31.43;;
